sensor_id;sensor_type;location;lat;lon;timestamp;P1;P2;P0
46591;PMS6003;32314;48.748;9.656;2022-08-21T00:06:04;4.00;4.00;3.75
46591;PMS6003;32314;48.748;9.656;2022-08-21T00:08:51;3.00;3.00;3.00
46591;PMS6003;32314;48.748;9.656;2022-08-21T00:11:40;4.25;4.25;4.00
46591;PMS6003;32314;48.748;9.656;2022-08-21T00:14:28;4.25;4.25;4.00
46591;PMS6003;32314;48.748;9.656;2022-08-21T00:17:17;4.50;4.00;3.25
46591;PMS6003;32314;48.748;9.656;2022-08-21T00:20:16;3.25;3.25;3.00
46591;PMS6003;32314;48.748;9.656;2022-08-21T00:23:04;4.00;3.00;2.25
46591;PMS6003;32314;48.748;9.656;2022-08-21T00:25:53;8.00;8.00;7.25
46591;PMS6003;32314;48.748;9.656;2022-08-21T00:28:39;6.50;5.00;4.50
46591;PMS6003;32314;48.748;9.656;2022-08-21T00:31:31;4.00;4.00;3.00
46591;PMS6003;32314;48.748;9.656;2022-08-21T00:34:23;4.75;4.00;3.00
46591;PMS6003;32314;48.748;9.656;2022-08-21T00:37:09;3.75;3.75;3.00
46591;PMS6003;32314;48.748;9.656;2022-08-21T00:39:55;3.00;3.00;2.25
46591;PMS6003;32314;48.748;9.656;2022-08-21T00:42:43;4.00;4.00;3.25
46591;PMS6003;32314;48.748;9.656;2022-08-21T00:45:29;5.00;5.00;4.50
46591;PMS6003;32314;48.748;9.656;2022-08-21T00:48:15;5.00;5.00;4.25
46591;PMS6003;32314;48.748;9.656;2022-08-21T00:51:04;5.50;5.50;4.75
46591;PMS6003;32314;48.748;9.656;2022-08-21T00:53:53;3.75;3.75;3.75
46591;PMS6003;32314;48.748;9.656;2022-08-21T00:56:41;4.00;4.00;3.00
46591;PMS6003;32314;48.748;9.656;2022-08-21T00:59:28;3.00;3.00;3.00
46591;PMS6003;32314;48.748;9.656;2022-08-21T01:02:17;3.00;3.00;3.00
46591;PMS6003;32314;48.748;9.656;2022-08-21T01:05:05;5.25;4.00;3.25
46591;PMS6003;32314;48.748;9.656;2022-08-21T01:07:52;4.00;4.00;4.00
46591;PMS6003;32314;48.748;9.656;2022-08-21T01:10:39;3.00;3.00;3.00
46591;PMS6003;32314;48.748;9.656;2022-08-21T01:13:25;4.00;4.00;3.00
46591;PMS6003;32314;48.748;9.656;2022-08-21T01:16:14;3.50;3.50;3.25
46591;PMS6003;32314;48.748;9.656;2022-08-21T01:19:01;3.00;3.00;3.00
46591;PMS6003;32314;48.748;9.656;2022-08-21T01:21:47;2.00;2.00;1.75
46591;PMS6003;32314;48.748;9.656;2022-08-21T01:24:34;2.75;2.75;2.00
46591;PMS6003;32314;48.748;9.656;2022-08-21T01:27:22;3.00;3.00;3.00
46591;PMS6003;32314;48.748;9.656;2022-08-21T01:30:20;2.75;2.75;2.00
46591;PMS6003;32314;48.748;9.656;2022-08-21T01:33:19;2.50;2.50;2.50
46591;PMS6003;32314;48.748;9.656;2022-08-21T01:36:19;2.00;2.00;2.00
46591;PMS6003;32314;48.748;9.656;2022-08-21T01:39:06;3.25;2.75;2.50
46591;PMS6003;32314;48.748;9.656;2022-08-21T01:41:54;2.50;2.50;2.25
46591;PMS6003;32314;48.748;9.656;2022-08-21T01:44:40;4.00;4.00;3.00
46591;PMS6003;32314;48.748;9.656;2022-08-21T01:47:27;4.00;4.00;3.00
46591;PMS6003;32314;48.748;9.656;2022-08-21T01:50:14;2.50;1.25;1.25
46591;PMS6003;32314;48.748;9.656;2022-08-21T01:53:08;2.50;2.50;2.50
46591;PMS6003;32314;48.748;9.656;2022-08-21T01:55:54;3.00;3.00;2.75
46591;PMS6003;32314;48.748;9.656;2022-08-21T01:58:46;2.50;2.50;2.00
46591;PMS6003;32314;48.748;9.656;2022-08-21T02:01:44;3.00;3.00;3.00
46591;PMS6003;32314;48.748;9.656;2022-08-21T02:04:36;3.00;3.00;3.00
46591;PMS6003;32314;48.748;9.656;2022-08-21T02:07:27;4.00;4.00;3.50
46591;PMS6003;32314;48.748;9.656;2022-08-21T02:10:27;4.50;3.00;3.00
46591;PMS6003;32314;48.748;9.656;2022-08-21T02:13:23;1.75;1.75;1.50
46591;PMS6003;32314;48.748;9.656;2022-08-21T02:16:14;3.00;3.00;3.00
46591;PMS6003;32314;48.748;9.656;2022-08-21T02:19:06;2.00;2.00;2.00
46591;PMS6003;32314;48.748;9.656;2022-08-21T02:21:53;2.00;2.00;2.00
46591;PMS6003;32314;48.748;9.656;2022-08-21T02:24:47;2.75;2.75;2.75
46591;PMS6003;32314;48.748;9.656;2022-08-21T02:27:54;3.00;3.00;2.75
46591;PMS6003;32314;48.748;9.656;2022-08-21T02:30:42;3.00;3.00;2.75
46591;PMS6003;32314;48.748;9.656;2022-08-21T02:33:34;4.00;2.75;2.00
46591;PMS6003;32314;48.748;9.656;2022-08-21T02:36:20;3.00;2.00;1.75
46591;PMS6003;32314;48.748;9.656;2022-08-21T02:39:14;2.50;2.50;2.50
46591;PMS6003;32314;48.748;9.656;2022-08-21T02:42:07;2.25;2.25;2.00
46591;PMS6003;32314;48.748;9.656;2022-08-21T02:44:54;2.00;2.00;2.00
46591;PMS6003;32314;48.748;9.656;2022-08-21T02:47:49;2.00;2.00;2.00
46591;PMS6003;32314;48.748;9.656;2022-08-21T02:51:17;2.00;2.00;2.00
46591;PMS6003;32314;48.748;9.656;2022-08-21T02:53:59;3.00;3.00;3.00
46591;PMS6003;32314;48.748;9.656;2022-08-21T02:56:47;6.25;3.00;2.00
46591;PMS6003;32314;48.748;9.656;2022-08-21T02:59:39;2.50;2.50;2.00
46591;PMS6003;32314;48.748;9.656;2022-08-21T03:02:32;2.25;2.25;2.00
46591;PMS6003;32314;48.748;9.656;2022-08-21T03:05:27;3.00;3.00;3.00
46591;PMS6003;32314;48.748;9.656;2022-08-21T03:08:21;4.00;3.00;2.25
46591;PMS6003;32314;48.748;9.656;2022-08-21T03:11:23;2.50;2.50;2.00
46591;PMS6003;32314;48.748;9.656;2022-08-21T03:14:11;3.00;3.00;2.25
46591;PMS6003;32314;48.748;9.656;2022-08-21T03:17:08;4.00;4.00;3.00
46591;PMS6003;32314;48.748;9.656;2022-08-21T03:19:56;2.75;2.00;2.00
46591;PMS6003;32314;48.748;9.656;2022-08-21T03:22:51;1.50;1.50;1.50
46591;PMS6003;32314;48.748;9.656;2022-08-21T03:25:45;2.00;2.00;1.50
46591;PMS6003;32314;48.748;9.656;2022-08-21T03:28:47;4.50;3.00;3.00
46591;PMS6003;32314;48.748;9.656;2022-08-21T03:31:44;3.50;3.50;3.25
46591;PMS6003;32314;48.748;9.656;2022-08-21T03:34:43;4.00;4.00;3.25
46591;PMS6003;32314;48.748;9.656;2022-08-21T03:37:40;2.50;2.50;2.50
46591;PMS6003;32314;48.748;9.656;2022-08-21T03:40:40;4.00;4.00;3.25
46591;PMS6003;32314;48.748;9.656;2022-08-21T03:43:37;4.25;4.25;4.00
46591;PMS6003;32314;48.748;9.656;2022-08-21T03:46:26;6.50;6.50;5.00
46591;PMS6003;32314;48.748;9.656;2022-08-21T03:49:16;6.75;4.75;4.00
46591;PMS6003;32314;48.748;9.656;2022-08-21T03:52:16;4.00;4.00;4.00
46591;PMS6003;32314;48.748;9.656;2022-08-21T03:55:07;4.00;4.00;3.00
46591;PMS6003;32314;48.748;9.656;2022-08-21T03:58:17;5.25;4.00;4.00
46591;PMS6003;32314;48.748;9.656;2022-08-21T04:01:20;5.75;5.00;4.25
46591;PMS6003;32314;48.748;9.656;2022-08-21T04:04:15;4.00;4.00;4.00
46591;PMS6003;32314;48.748;9.656;2022-08-21T04:07:31;5.00;5.00;4.00
46591;PMS6003;32314;48.748;9.656;2022-08-21T04:10:22;4.25;4.25;3.00
46591;PMS6003;32314;48.748;9.656;2022-08-21T04:13:51;3.00;3.00;2.50
46591;PMS6003;32314;48.748;9.656;2022-08-21T04:16:44;3.50;3.50;3.00
46591;PMS6003;32314;48.748;9.656;2022-08-21T04:19:46;2.00;2.00;2.00
46591;PMS6003;32314;48.748;9.656;2022-08-21T04:23:04;2.50;2.50;2.00
46591;PMS6003;32314;48.748;9.656;2022-08-21T04:25:59;2.75;2.75;2.50
46591;PMS6003;32314;48.748;9.656;2022-08-21T04:28:54;3.00;3.00;2.25
46591;PMS6003;32314;48.748;9.656;2022-08-21T04:31:53;3.00;3.00;3.00
46591;PMS6003;32314;48.748;9.656;2022-08-21T04:35:06;3.75;3.75;3.25
46591;PMS6003;32314;48.748;9.656;2022-08-21T04:38:12;0.50;0.50;0.00
46591;PMS6003;32314;48.748;9.656;2022-08-21T04:41:26;3.00;3.00;2.00
46591;PMS6003;32314;48.748;9.656;2022-08-21T04:44:34;3.00;3.00;3.00
46591;PMS6003;32314;48.748;9.656;2022-08-21T04:47:35;3.00;3.00;3.00
46591;PMS6003;32314;48.748;9.656;2022-08-21T04:50:36;4.00;4.00;4.00
46591;PMS6003;32314;48.748;9.656;2022-08-21T04:53:37;5.00;5.00;4.25
46591;PMS6003;32314;48.748;9.656;2022-08-21T04:56:50;4.50;4.50;3.75
46591;PMS6003;32314;48.748;9.656;2022-08-21T04:59:56;4.25;4.25;4.00
46591;PMS6003;32314;48.748;9.656;2022-08-21T05:03:07;4.00;4.00;4.00
46591;PMS6003;32314;48.748;9.656;2022-08-21T05:06:05;3.00;3.00;2.50
46591;PMS6003;32314;48.748;9.656;2022-08-21T05:09:11;4.00;3.00;2.00
46591;PMS6003;32314;48.748;9.656;2022-08-21T05:12:02;4.00;4.00;4.00
46591;PMS6003;32314;48.748;9.656;2022-08-21T05:15:09;2.00;2.00;2.00
46591;PMS6003;32314;48.748;9.656;2022-08-21T05:21:12;3.00;3.00;3.00
46591;PMS6003;32314;48.748;9.656;2022-08-21T05:23:58;3.00;3.00;2.75
46591;PMS6003;32314;48.748;9.656;2022-08-21T05:26:44;5.50;3.75;3.00
46591;PMS6003;32314;48.748;9.656;2022-08-21T05:29:31;4.00;4.00;3.25
46591;PMS6003;32314;48.748;9.656;2022-08-21T05:32:17;4.50;4.50;4.00
46591;PMS6003;32314;48.748;9.656;2022-08-21T05:35:06;3.75;3.75;3.50
46591;PMS6003;32314;48.748;9.656;2022-08-21T05:37:53;3.75;3.75;3.00
46591;PMS6003;32314;48.748;9.656;2022-08-21T05:40:39;3.75;3.75;3.75
46591;PMS6003;32314;48.748;9.656;2022-08-21T05:43:25;4.00;4.00;3.50
46591;PMS6003;32314;48.748;9.656;2022-08-21T05:46:10;3.00;3.00;3.00
46591;PMS6003;32314;48.748;9.656;2022-08-21T05:48:56;4.75;3.25;3.00
46591;PMS6003;32314;48.748;9.656;2022-08-21T05:51:42;5.00;5.00;4.25
46591;PMS6003;32314;48.748;9.656;2022-08-21T05:54:28;4.00;4.00;4.00
46591;PMS6003;32314;48.748;9.656;2022-08-21T05:57:14;7.00;5.25;5.00
46591;PMS6003;32314;48.748;9.656;2022-08-21T06:00:00;6.50;4.00;3.00
46591;PMS6003;32314;48.748;9.656;2022-08-21T06:02:46;6.00;6.00;5.50
46591;PMS6003;32314;48.748;9.656;2022-08-21T06:05:31;5.00;5.00;5.00
46591;PMS6003;32314;48.748;9.656;2022-08-21T06:08:17;8.00;6.25;5.25
46591;PMS6003;32314;48.748;9.656;2022-08-21T06:11:04;8.25;7.00;6.00
46591;PMS6003;32314;48.748;9.656;2022-08-21T06:13:51;5.00;5.00;4.25
46591;PMS6003;32314;48.748;9.656;2022-08-21T06:16:37;5.75;5.75;5.50
46591;PMS6003;32314;48.748;9.656;2022-08-21T06:19:23;5.75;5.75;5.25
46591;PMS6003;32314;48.748;9.656;2022-08-21T06:22:09;7.75;7.75;6.75
46591;PMS6003;32314;48.748;9.656;2022-08-21T06:24:55;6.00;6.00;5.50
46591;PMS6003;32314;48.748;9.656;2022-08-21T06:27:41;7.75;7.25;6.00
46591;PMS6003;32314;48.748;9.656;2022-08-21T06:30:26;5.75;5.75;5.25
46591;PMS6003;32314;48.748;9.656;2022-08-21T06:33:12;7.00;7.00;7.00
46591;PMS6003;32314;48.748;9.656;2022-08-21T06:35:58;7.50;6.75;5.75
46591;PMS6003;32314;48.748;9.656;2022-08-21T06:38:45;6.25;6.25;5.25
46591;PMS6003;32314;48.748;9.656;2022-08-21T06:41:31;8.75;7.50;6.00
46591;PMS6003;32314;48.748;9.656;2022-08-21T06:44:17;7.75;6.75;6.00
46591;PMS6003;32314;48.748;9.656;2022-08-21T06:47:03;8.00;8.00;7.00
46591;PMS6003;32314;48.748;9.656;2022-08-21T06:49:49;7.75;6.50;6.00
46591;PMS6003;32314;48.748;9.656;2022-08-21T06:52:35;6.75;6.75;6.00
46591;PMS6003;32314;48.748;9.656;2022-08-21T06:55:21;8.75;8.00;7.00
46591;PMS6003;32314;48.748;9.656;2022-08-21T06:58:07;7.50;7.25;5.50
46591;PMS6003;32314;48.748;9.656;2022-08-21T07:00:54;6.00;6.00;5.75
46591;PMS6003;32314;48.748;9.656;2022-08-21T07:03:40;9.50;8.50;7.25
46591;PMS6003;32314;48.748;9.656;2022-08-21T07:06:27;9.00;9.00;8.00
46591;PMS6003;32314;48.748;9.656;2022-08-21T07:09:13;7.00;7.00;6.25
46591;PMS6003;32314;48.748;9.656;2022-08-21T07:12:00;8.25;8.25;7.25
46591;PMS6003;32314;48.748;9.656;2022-08-21T07:14:46;7.00;7.00;6.00
46591;PMS6003;32314;48.748;9.656;2022-08-21T07:17:32;8.00;8.00;7.00
46591;PMS6003;32314;48.748;9.656;2022-08-21T07:20:17;8.25;8.25;7.50
46591;PMS6003;32314;48.748;9.656;2022-08-21T07:23:04;8.00;8.00;7.00
46591;PMS6003;32314;48.748;9.656;2022-08-21T07:25:52;8.75;8.75;6.50
46591;PMS6003;32314;48.748;9.656;2022-08-21T07:28:37;8.75;8.75;7.75
46591;PMS6003;32314;48.748;9.656;2022-08-21T07:31:24;8.25;7.00;7.00
46591;PMS6003;32314;48.748;9.656;2022-08-21T07:34:11;6.50;6.50;5.75
46591;PMS6003;32314;48.748;9.656;2022-08-21T07:37:07;8.00;8.00;6.50
46591;PMS6003;32314;48.748;9.656;2022-08-21T07:39:59;7.00;7.00;6.25
46591;PMS6003;32314;48.748;9.656;2022-08-21T07:42:46;7.50;7.00;6.75
46591;PMS6003;32314;48.748;9.656;2022-08-21T07:46:02;7.00;7.00;6.00
46591;PMS6003;32314;48.748;9.656;2022-08-21T07:48:52;7.00;7.00;6.00
46591;PMS6003;32314;48.748;9.656;2022-08-21T07:51:41;6.00;6.00;5.00
46591;PMS6003;32314;48.748;9.656;2022-08-21T07:54:59;7.00;7.00;6.75
46591;PMS6003;32314;48.748;9.656;2022-08-21T07:57:58;6.50;6.50;5.75
46591;PMS6003;32314;48.748;9.656;2022-08-21T08:00:55;7.00;6.50;5.25
46591;PMS6003;32314;48.748;9.656;2022-08-21T08:03:47;8.00;8.00;6.25
46591;PMS6003;32314;48.748;9.656;2022-08-21T08:06:38;6.75;6.75;5.75
46591;PMS6003;32314;48.748;9.656;2022-08-21T08:10:16;7.00;7.00;6.25
46591;PMS6003;32314;48.748;9.656;2022-08-21T08:17:07;8.75;8.75;7.00
46591;PMS6003;32314;48.748;9.656;2022-08-21T08:23:25;7.00;7.00;6.25
46591;PMS6003;32314;48.748;9.656;2022-08-21T08:26:25;10.25;9.50;7.50
46591;PMS6003;32314;48.748;9.656;2022-08-21T08:29:40;8.75;8.75;7.00
46591;PMS6003;32314;48.748;9.656;2022-08-21T08:36:50;8.00;8.00;7.00
46591;PMS6003;32314;48.748;9.656;2022-08-21T08:40:12;9.00;9.00;8.25
46591;PMS6003;32314;48.748;9.656;2022-08-21T08:43:32;8.25;7.75;7.00
46591;PMS6003;32314;48.748;9.656;2022-08-21T08:47:02;10.75;10.75;8.75
46591;PMS6003;32314;48.748;9.656;2022-08-21T08:50:02;7.25;7.25;6.75
46591;PMS6003;32314;48.748;9.656;2022-08-21T08:53:08;9.00;8.25;7.50
46591;PMS6003;32314;48.748;9.656;2022-08-21T08:56:07;8.75;8.00;7.75
46591;PMS6003;32314;48.748;9.656;2022-08-21T09:02:32;8.50;8.50;7.50
46591;PMS6003;32314;48.748;9.656;2022-08-21T09:05:43;7.50;7.50;7.50
46591;PMS6003;32314;48.748;9.656;2022-08-21T09:08:48;9.50;6.50;5.75
46591;PMS6003;32314;48.748;9.656;2022-08-21T09:18:48;10.00;10.00;9.00
46591;PMS6003;32314;48.748;9.656;2022-08-21T09:21:43;8.00;8.00;6.00
46591;PMS6003;32314;48.748;9.656;2022-08-21T09:27:33;9.00;7.50;7.00
46591;PMS6003;32314;48.748;9.656;2022-08-21T09:30:25;7.00;7.00;6.50
46591;PMS6003;32314;48.748;9.656;2022-08-21T09:33:13;8.25;8.25;7.25
46591;PMS6003;32314;48.748;9.656;2022-08-21T09:36:04;7.00;6.00;5.50
46591;PMS6003;32314;48.748;9.656;2022-08-21T09:38:52;10.50;9.50;7.50
46591;PMS6003;32314;48.748;9.656;2022-08-21T09:41:39;7.00;7.00;7.00
46591;PMS6003;32314;48.748;9.656;2022-08-21T09:44:31;8.75;8.75;7.50
46591;PMS6003;32314;48.748;9.656;2022-08-21T09:47:21;8.00;8.00;7.50
46591;PMS6003;32314;48.748;9.656;2022-08-21T09:50:17;9.00;8.00;6.75
46591;PMS6003;32314;48.748;9.656;2022-08-21T09:53:16;8.00;8.00;7.00
46591;PMS6003;32314;48.748;9.656;2022-08-21T09:56:04;6.00;6.00;5.00
46591;PMS6003;32314;48.748;9.656;2022-08-21T09:59:24;7.25;7.25;6.75
46591;PMS6003;32314;48.748;9.656;2022-08-21T10:05:18;6.25;6.25;6.00
46591;PMS6003;32314;48.748;9.656;2022-08-21T10:08:16;7.50;7.50;6.75
46591;PMS6003;32314;48.748;9.656;2022-08-21T10:11:07;8.00;8.00;6.50
46591;PMS6003;32314;48.748;9.656;2022-08-21T10:13:57;7.75;7.25;6.50
46591;PMS6003;32314;48.748;9.656;2022-08-21T10:26:10;5.00;5.00;4.00
46591;PMS6003;32314;48.748;9.656;2022-08-21T10:35:31;5.00;5.00;4.75
46591;PMS6003;32314;48.748;9.656;2022-08-21T10:48:04;6.50;6.50;5.00
46591;PMS6003;32314;48.748;9.656;2022-08-21T10:50:58;8.00;5.75;5.00
46591;PMS6003;32314;48.748;9.656;2022-08-21T10:54:09;7.00;7.00;6.25
46591;PMS6003;32314;48.748;9.656;2022-08-21T10:57:02;5.00;5.00;4.00
46591;PMS6003;32314;48.748;9.656;2022-08-21T10:59:57;6.00;6.00;5.00
46591;PMS6003;32314;48.748;9.656;2022-08-21T11:05:50;7.33;5.33;4.33
46591;PMS6003;32314;48.748;9.656;2022-08-21T11:08:42;5.33;5.33;4.33
46591;PMS6003;32314;48.748;9.656;2022-08-21T11:11:32;5.67;5.67;5.00
46591;PMS6003;32314;48.748;9.656;2022-08-21T11:14:24;5.33;5.33;4.67
46591;PMS6003;32314;48.748;9.656;2022-08-21T11:23:45;4.00;4.00;4.00
46591;PMS6003;32314;48.748;9.656;2022-08-21T11:29:28;6.00;6.00;5.00
46591;PMS6003;32314;48.748;9.656;2022-08-21T11:32:23;6.00;6.00;5.00
46591;PMS6003;32314;48.748;9.656;2022-08-21T11:38:31;5.00;5.00;4.67
46591;PMS6003;32314;48.748;9.656;2022-08-21T11:41:30;5.00;5.00;3.00
46591;PMS6003;32314;48.748;9.656;2022-08-21T11:50:55;4.33;4.33;4.00
46591;PMS6003;32314;48.748;9.656;2022-08-21T11:53:46;4.33;4.33;3.67
46591;PMS6003;32314;48.748;9.656;2022-08-21T11:56:41;5.00;4.67;3.67
46591;PMS6003;32314;48.748;9.656;2022-08-21T11:59:38;5.33;5.33;5.00
46591;PMS6003;32314;48.748;9.656;2022-08-21T12:02:34;4.00;4.00;3.67
46591;PMS6003;32314;48.748;9.656;2022-08-21T12:16:50;4.67;4.00;3.33
46591;PMS6003;32314;48.748;9.656;2022-08-21T12:19:36;4.50;4.25;2.50
46591;PMS6003;32314;48.748;9.656;2022-08-21T12:22:22;4.67;4.67;4.00
46591;PMS6003;32314;48.748;9.656;2022-08-21T12:25:24;3.00;3.00;2.75
46591;PMS6003;32314;48.748;9.656;2022-08-21T12:28:11;4.00;4.00;2.75
46591;PMS6003;32314;48.748;9.656;2022-08-21T12:31:00;3.75;3.75;3.25
46591;PMS6003;32314;48.748;9.656;2022-08-21T12:33:49;2.00;2.00;1.75
46591;PMS6003;32314;48.748;9.656;2022-08-21T12:36:40;4.00;3.50;3.00
46591;PMS6003;32314;48.748;9.656;2022-08-21T12:39:30;5.75;3.25;3.25
46591;PMS6003;32314;48.748;9.656;2022-08-21T12:42:19;5.75;5.75;4.75
46591;PMS6003;32314;48.748;9.656;2022-08-21T12:45:28;5.00;4.00;3.25
46591;PMS6003;32314;48.748;9.656;2022-08-21T12:48:39;2.25;2.25;2.25
46591;PMS6003;32314;48.748;9.656;2022-08-21T12:51:29;2.00;2.00;2.00
46591;PMS6003;32314;48.748;9.656;2022-08-21T12:54:29;0.00;0.00;0.00
46591;PMS6003;32314;48.748;9.656;2022-08-21T12:57:21;3.50;3.50;2.50
46591;PMS6003;32314;48.748;9.656;2022-08-21T13:00:11;3.00;3.00;2.50
46591;PMS6003;32314;48.748;9.656;2022-08-21T13:03:24;5.25;3.50;3.00
46591;PMS6003;32314;48.748;9.656;2022-08-21T13:06:14;2.00;2.00;2.00
46591;PMS6003;32314;48.748;9.656;2022-08-21T13:09:06;2.00;2.00;1.25
46591;PMS6003;32314;48.748;9.656;2022-08-21T13:11:54;3.25;3.25;3.25
46591;PMS6003;32314;48.748;9.656;2022-08-21T13:14:41;2.50;2.50;2.50
46591;PMS6003;32314;48.748;9.656;2022-08-21T13:17:30;2.25;2.25;1.50
46591;PMS6003;32314;48.748;9.656;2022-08-21T13:20:20;3.00;3.00;2.00
46591;PMS6003;32314;48.748;9.656;2022-08-21T13:26:21;2.00;2.00;2.00
46591;PMS6003;32314;48.748;9.656;2022-08-21T13:29:11;4.00;4.00;3.25
46591;PMS6003;32314;48.748;9.656;2022-08-21T13:32:01;2.75;2.75;2.50
46591;PMS6003;32314;48.748;9.656;2022-08-21T13:34:50;4.00;4.00;4.00
46591;PMS6003;32314;48.748;9.656;2022-08-21T13:37:37;4.00;4.00;4.00
46591;PMS6003;32314;48.748;9.656;2022-08-21T13:40:30;4.00;4.00;3.75
46591;PMS6003;32314;48.748;9.656;2022-08-21T13:43:19;3.75;3.75;3.75
46591;PMS6003;32314;48.748;9.656;2022-08-21T13:46:07;3.25;3.25;3.00
46591;PMS6003;32314;48.748;9.656;2022-08-21T13:48:55;4.50;4.50;4.00
46591;PMS6003;32314;48.748;9.656;2022-08-21T13:51:41;5.00;3.75;3.25
46591;PMS6003;32314;48.748;9.656;2022-08-21T13:54:36;3.50;3.50;3.00
46591;PMS6003;32314;48.748;9.656;2022-08-21T13:57:26;4.75;4.75;4.00
46591;PMS6003;32314;48.748;9.656;2022-08-21T14:03:04;3.50;3.50;3.50
46591;PMS6003;32314;48.748;9.656;2022-08-21T14:05:52;3.25;3.25;3.00
46591;PMS6003;32314;48.748;9.656;2022-08-21T14:08:38;4.00;4.00;4.00
46591;PMS6003;32314;48.748;9.656;2022-08-21T14:11:31;3.00;3.00;3.00
46591;PMS6003;32314;48.748;9.656;2022-08-21T14:17:25;3.25;3.25;3.00
46591;PMS6003;32314;48.748;9.656;2022-08-21T14:20:30;2.25;2.25;2.00
46591;PMS6003;32314;48.748;9.656;2022-08-21T14:23:25;2.75;2.75;2.50
46591;PMS6003;32314;48.748;9.656;2022-08-21T14:26:17;4.25;4.25;3.50
46591;PMS6003;32314;48.748;9.656;2022-08-21T14:29:07;4.00;4.00;3.00
46591;PMS6003;32314;48.748;9.656;2022-08-21T14:31:58;5.00;4.00;3.00
46591;PMS6003;32314;48.748;9.656;2022-08-21T14:34:54;2.00;2.00;1.00
46591;PMS6003;32314;48.748;9.656;2022-08-21T14:37:43;4.75;4.00;3.00
46591;PMS6003;32314;48.748;9.656;2022-08-21T14:40:30;4.00;4.00;3.50
46591;PMS6003;32314;48.748;9.656;2022-08-21T14:43:21;2.50;2.50;2.50
46591;PMS6003;32314;48.748;9.656;2022-08-21T14:46:07;4.50;3.00;2.25
46591;PMS6003;32314;48.748;9.656;2022-08-21T14:48:53;3.00;3.00;2.75
46591;PMS6003;32314;48.748;9.656;2022-08-21T14:51:39;2.00;2.00;2.00
46591;PMS6003;32314;48.748;9.656;2022-08-21T14:54:26;2.50;2.50;2.00
46591;PMS6003;32314;48.748;9.656;2022-08-21T14:57:13;2.75;2.75;2.00
46591;PMS6003;32314;48.748;9.656;2022-08-21T14:59:59;2.00;2.00;1.00
46591;PMS6003;32314;48.748;9.656;2022-08-21T15:02:50;4.00;2.75;2.00
46591;PMS6003;32314;48.748;9.656;2022-08-21T15:05:36;2.00;2.00;1.25
46591;PMS6003;32314;48.748;9.656;2022-08-21T15:08:24;4.00;2.75;2.00
46591;PMS6003;32314;48.748;9.656;2022-08-21T15:11:16;4.00;4.00;4.00
46591;PMS6003;32314;48.748;9.656;2022-08-21T15:14:15;2.00;2.00;2.00
46591;PMS6003;32314;48.748;9.656;2022-08-21T15:17:06;3.75;3.75;3.00
46591;PMS6003;32314;48.748;9.656;2022-08-21T15:19:53;4.25;3.75;3.00
46591;PMS6003;32314;48.748;9.656;2022-08-21T15:27:01;4.00;2.25;2.25
46591;PMS6003;32314;48.748;9.656;2022-08-21T15:29:48;4.50;3.00;3.00
46591;PMS6003;32314;48.748;9.656;2022-08-21T15:32:34;3.50;3.50;3.00
46591;PMS6003;32314;48.748;9.656;2022-08-21T15:35:19;3.25;3.25;3.25
46591;PMS6003;32314;48.748;9.656;2022-08-21T15:38:05;3.00;3.00;3.00
46591;PMS6003;32314;48.748;9.656;2022-08-21T15:40:51;3.00;3.00;3.00
46591;PMS6003;32314;48.748;9.656;2022-08-21T15:43:47;3.00;3.00;2.50
46591;PMS6003;32314;48.748;9.656;2022-08-21T15:46:43;4.75;3.00;2.75
46591;PMS6003;32314;48.748;9.656;2022-08-21T15:49:38;2.75;2.75;2.00
46591;PMS6003;32314;48.748;9.656;2022-08-21T15:52:35;3.00;3.00;3.00
46591;PMS6003;32314;48.748;9.656;2022-08-21T15:55:24;2.00;2.00;2.00
46591;PMS6003;32314;48.748;9.656;2022-08-21T15:58:15;2.25;2.25;1.75
46591;PMS6003;32314;48.748;9.656;2022-08-21T16:01:03;3.75;3.00;2.25
46591;PMS6003;32314;48.748;9.656;2022-08-21T16:03:49;1.75;1.75;1.00
46591;PMS6003;32314;48.748;9.656;2022-08-21T16:06:36;2.50;2.50;2.00
46591;PMS6003;32314;48.748;9.656;2022-08-21T16:09:21;2.25;2.25;2.00
46591;PMS6003;32314;48.748;9.656;2022-08-21T16:12:07;3.25;2.50;2.25
46591;PMS6003;32314;48.748;9.656;2022-08-21T16:14:56;2.00;2.00;2.00
46591;PMS6003;32314;48.748;9.656;2022-08-21T16:17:43;3.00;3.00;2.75
46591;PMS6003;32314;48.748;9.656;2022-08-21T16:20:33;3.00;3.00;2.00
46591;PMS6003;32314;48.748;9.656;2022-08-21T16:23:18;9.00;9.00;8.00
46591;PMS6003;32314;48.748;9.656;2022-08-21T16:26:05;4.00;4.00;4.00
46591;PMS6003;32314;48.748;9.656;2022-08-21T16:28:52;8.00;6.50;6.00
46591;PMS6003;32314;48.748;9.656;2022-08-21T16:31:40;4.50;4.50;3.00
46591;PMS6003;32314;48.748;9.656;2022-08-21T16:34:26;5.00;4.00;3.75
46591;PMS6003;32314;48.748;9.656;2022-08-21T16:37:16;4.50;4.50;3.75
46591;PMS6003;32314;48.748;9.656;2022-08-21T16:40:03;3.25;3.25;3.00
46591;PMS6003;32314;48.748;9.656;2022-08-21T16:42:50;4.25;3.00;2.00
46591;PMS6003;32314;48.748;9.656;2022-08-21T16:45:35;3.00;3.00;2.00
46591;PMS6003;32314;48.748;9.656;2022-08-21T16:48:22;3.25;3.25;3.00
46591;PMS6003;32314;48.748;9.656;2022-08-21T16:51:08;3.00;3.00;2.25
46591;PMS6003;32314;48.748;9.656;2022-08-21T16:53:54;3.00;3.00;3.00
46591;PMS6003;32314;48.748;9.656;2022-08-21T16:56:40;3.75;2.25;1.50
46591;PMS6003;32314;48.748;9.656;2022-08-21T16:59:26;3.00;3.00;3.00
46591;PMS6003;32314;48.748;9.656;2022-08-21T17:02:24;3.75;3.75;3.25
46591;PMS6003;32314;48.748;9.656;2022-08-21T17:05:22;3.00;3.00;3.00
46591;PMS6003;32314;48.748;9.656;2022-08-21T17:08:08;2.00;2.00;2.00
46591;PMS6003;32314;48.748;9.656;2022-08-21T17:10:54;4.00;3.00;2.00
46591;PMS6003;32314;48.748;9.656;2022-08-21T17:13:40;3.50;3.50;2.75
46591;PMS6003;32314;48.748;9.656;2022-08-21T17:16:27;3.75;3.25;3.25
46591;PMS6003;32314;48.748;9.656;2022-08-21T17:19:14;3.75;3.75;3.75
46591;PMS6003;32314;48.748;9.656;2022-08-21T17:22:00;3.00;3.00;3.00
46591;PMS6003;32314;48.748;9.656;2022-08-21T17:24:46;2.75;2.75;2.50
46591;PMS6003;32314;48.748;9.656;2022-08-21T17:27:32;3.50;3.50;3.25
46591;PMS6003;32314;48.748;9.656;2022-08-21T17:30:18;4.00;4.00;3.00
46591;PMS6003;32314;48.748;9.656;2022-08-21T17:33:04;5.00;4.33;3.33
46591;PMS6003;32314;48.748;9.656;2022-08-21T17:35:50;7.00;5.00;5.00
46591;PMS6003;32314;48.748;9.656;2022-08-21T17:38:37;3.33;3.33;3.33
46591;PMS6003;32314;48.748;9.656;2022-08-21T17:41:23;6.00;4.33;4.00
46591;PMS6003;32314;48.748;9.656;2022-08-21T17:44:09;4.00;4.00;4.00
46591;PMS6003;32314;48.748;9.656;2022-08-21T17:46:56;5.00;5.00;4.00
46591;PMS6003;32314;48.748;9.656;2022-08-21T17:49:42;4.67;4.67;3.67
46591;PMS6003;32314;48.748;9.656;2022-08-21T17:52:28;6.25;6.25;6.00
46591;PMS6003;32314;48.748;9.656;2022-08-21T17:55:14;6.00;6.00;5.75
46591;PMS6003;32314;48.748;9.656;2022-08-21T17:58:01;7.25;6.50;5.75
46591;PMS6003;32314;48.748;9.656;2022-08-21T18:00:48;7.50;6.50;5.75
46591;PMS6003;32314;48.748;9.656;2022-08-21T18:03:37;4.50;4.50;4.00
46591;PMS6003;32314;48.748;9.656;2022-08-21T18:06:23;5.00;5.00;4.75
46591;PMS6003;32314;48.748;9.656;2022-08-21T18:09:10;5.00;5.00;4.00
46591;PMS6003;32314;48.748;9.656;2022-08-21T18:11:57;5.00;4.75;4.75
46591;PMS6003;32314;48.748;9.656;2022-08-21T18:14:44;4.75;4.75;4.25
46591;PMS6003;32314;48.748;9.656;2022-08-21T18:17:30;5.00;5.00;4.00
46591;PMS6003;32314;48.748;9.656;2022-08-21T18:20:19;6.00;6.00;5.50
46591;PMS6003;32314;48.748;9.656;2022-08-21T18:23:07;5.75;5.75;5.00
46591;PMS6003;32314;48.748;9.656;2022-08-21T18:25:54;8.25;7.75;6.75
46591;PMS6003;32314;48.748;9.656;2022-08-21T18:28:41;8.25;7.00;6.75
46591;PMS6003;32314;48.748;9.656;2022-08-21T18:31:29;5.50;5.50;5.25
46591;PMS6003;32314;48.748;9.656;2022-08-21T18:37:16;8.75;7.00;6.00
46591;PMS6003;32314;48.748;9.656;2022-08-21T18:40:02;6.25;5.75;5.00